createdAt,value
2019-04-07T00:00:25.766Z,0.00
2019-04-07T00:01:26.330Z,0.00
2019-04-07T00:02:25.734Z,0.00
2019-04-07T00:03:25.729Z,0.00
2019-04-07T00:04:25.711Z,0.00
2019-04-07T00:05:25.717Z,0.00
2019-04-07T00:06:25.902Z,0.00
2019-04-07T00:07:26.285Z,0.00
2019-04-07T00:08:26.176Z,0.00
2019-04-07T00:09:25.855Z,0.00
2019-04-07T00:10:25.957Z,0.00
2019-04-07T00:11:25.645Z,0.00
2019-04-07T00:12:25.621Z,0.00
2019-04-07T00:13:25.915Z,0.00
2019-04-07T00:14:26.122Z,0.00
2019-04-07T00:15:25.924Z,0.00
2019-04-07T00:16:25.575Z,0.00
2019-04-07T00:17:26.227Z,0.00
2019-04-07T00:18:25.557Z,0.00
2019-04-07T00:19:25.551Z,0.00
2019-04-07T00:20:25.534Z,0.00
2019-04-07T00:21:25.523Z,0.00
2019-04-07T00:22:25.512Z,0.00
2019-04-07T00:23:25.526Z,0.00
2019-04-07T00:24:25.497Z,0.00
2019-04-07T00:25:25.480Z,0.00
2019-04-07T00:26:25.468Z,0.00
2019-04-07T00:27:25.725Z,0.00
2019-04-07T00:28:25.444Z,0.00
2019-04-07T00:29:25.450Z,0.00
2019-04-07T00:30:25.424Z,0.00
2019-04-07T00:31:25.411Z,0.00
2019-04-07T00:32:25.401Z,0.00
2019-04-07T00:33:25.641Z,0.00
2019-04-07T00:34:25.374Z,0.00
2019-04-07T00:35:30.453Z,0.00
2019-04-07T00:36:26.614Z,0.00
2019-04-07T00:37:25.342Z,0.00
2019-04-07T00:38:25.334Z,0.00
2019-04-07T00:39:25.922Z,0.00
2019-04-07T00:40:25.307Z,0.00
2019-04-07T00:41:25.318Z,0.00
2019-04-07T00:42:25.884Z,0.00
2019-04-07T00:43:25.272Z,0.00
2019-04-07T00:44:25.264Z,0.00
2019-04-07T00:45:25.252Z,0.00
2019-04-07T00:46:25.238Z,0.00
2019-04-07T00:47:25.262Z,0.00
2019-04-07T00:48:25.342Z,0.00
2019-04-07T00:49:25.766Z,0.00
2019-04-07T00:50:25.195Z,0.00
2019-04-07T00:51:25.601Z,0.00
2019-04-07T00:52:25.171Z,0.00
2019-04-07T00:53:25.446Z,0.00
2019-04-07T00:54:25.449Z,0.00
2019-04-07T00:55:25.428Z,0.00
2019-04-07T00:56:25.844Z,0.00
2019-04-07T00:57:25.357Z,0.00
2019-04-07T00:58:25.108Z,0.00
2019-04-07T00:59:25.465Z,0.00
2019-04-07T01:00:25.082Z,0.00
2019-04-07T01:01:25.072Z,0.00
2019-04-07T01:02:25.943Z,0.00
2019-04-07T01:03:25.046Z,0.00
2019-04-07T01:04:25.347Z,0.00
2019-04-07T01:05:35.427Z,0.00
2019-04-07T01:06:26.129Z,0.00
2019-04-07T01:07:25.595Z,0.00
2019-04-07T01:08:24.990Z,0.00
2019-04-07T01:09:24.978Z,0.00
2019-04-07T01:10:24.965Z,0.00
2019-04-07T01:11:24.974Z,0.00
2019-04-07T01:12:24.947Z,0.00
2019-04-07T01:13:24.938Z,0.00
2019-04-07T01:14:24.920Z,0.00
2019-04-07T01:15:25.192Z,0.00
2019-04-07T01:16:25.216Z,0.00
2019-04-07T01:17:24.915Z,0.00
2019-04-07T01:18:26.809Z,0.00
2019-04-07T01:19:25.297Z,0.00
2019-04-07T01:20:24.854Z,0.00
2019-04-07T01:21:24.993Z,0.00
2019-04-07T01:22:25.298Z,0.00
2019-04-07T01:23:24.841Z,0.00
2019-04-07T01:24:25.233Z,0.00
2019-04-07T01:25:24.801Z,0.00
2019-04-07T01:26:25.037Z,0.00
2019-04-07T01:27:24.773Z,0.00
2019-04-07T01:28:25.239Z,0.00
2019-04-07T01:29:24.766Z,0.00
2019-04-07T01:30:25.149Z,0.00
2019-04-07T01:31:25.088Z,0.00
2019-04-07T01:32:24.716Z,0.00
2019-04-07T01:33:24.722Z,0.00
2019-04-07T01:34:25.009Z,0.00
2019-04-07T01:35:24.710Z,0.00
2019-04-07T01:36:24.945Z,0.00
2019-04-07T01:37:25.242Z,0.00
2019-04-07T01:38:24.655Z,0.00
2019-04-07T01:39:24.640Z,0.00
2019-04-07T01:40:24.624Z,0.00
2019-04-07T01:41:25.256Z,0.00
2019-04-07T01:42:24.600Z,0.00
2019-04-07T01:43:25.104Z,0.00
2019-04-07T01:44:24.580Z,0.00
2019-04-07T01:45:24.591Z,0.00
2019-04-07T01:46:24.572Z,0.00
2019-04-07T01:47:24.568Z,0.00
2019-04-07T01:48:24.534Z,0.00
2019-04-07T01:49:24.846Z,0.00
2019-04-07T01:50:24.512Z,0.00
2019-04-07T01:51:24.640Z,0.00
2019-04-07T01:52:24.500Z,0.00
2019-04-07T01:53:24.568Z,0.00
2019-04-07T01:54:24.969Z,0.00
2019-04-07T01:55:24.598Z,0.00
2019-04-07T01:56:24.587Z,0.00
2019-04-07T01:57:24.675Z,0.00
2019-04-07T01:58:25.186Z,0.00
2019-04-07T01:59:24.451Z,0.00
2019-04-07T02:00:24.986Z,0.00
2019-04-07T02:01:24.389Z,0.00
2019-04-07T02:02:24.807Z,0.00
2019-04-07T02:03:24.365Z,0.00
2019-04-07T02:04:24.550Z,0.00
2019-04-07T02:05:24.354Z,0.00
2019-04-07T02:06:24.414Z,0.00
2019-04-07T02:07:24.635Z,0.00
2019-04-07T02:08:24.782Z,0.00
2019-04-07T02:09:24.820Z,0.00
2019-04-07T02:10:24.286Z,0.00
2019-04-07T02:11:24.294Z,0.00
2019-04-07T02:12:24.828Z,0.00
2019-04-07T02:13:24.249Z,0.00
2019-04-07T02:14:24.240Z,0.00
2019-04-07T02:15:24.235Z,0.00
2019-04-07T02:16:24.629Z,0.00
2019-04-07T02:17:24.233Z,0.00
2019-04-07T02:18:24.661Z,0.00
2019-04-07T02:19:24.195Z,0.00
2019-04-07T02:20:24.172Z,0.00
2019-04-07T02:21:24.902Z,0.00
2019-04-07T02:22:24.151Z,0.00
2019-04-07T02:23:24.158Z,0.00
2019-04-07T02:24:24.555Z,0.00
2019-04-07T02:25:24.115Z,0.00
2019-04-07T02:26:24.104Z,0.00
2019-04-07T02:27:24.096Z,0.00
2019-04-07T02:28:24.087Z,0.00
2019-04-07T02:29:24.679Z,0.00
2019-04-07T02:30:24.064Z,0.00
2019-04-07T02:31:24.951Z,0.00
2019-04-07T02:32:24.645Z,0.00
2019-04-07T02:33:24.342Z,0.00
2019-04-07T02:34:24.026Z,0.00
2019-04-07T02:35:24.653Z,0.00
2019-04-07T02:36:29.136Z,0.00
2019-04-07T02:37:24.978Z,0.00
2019-04-07T02:38:23.969Z,0.00
2019-04-07T02:39:24.848Z,0.00
2019-04-07T02:40:23.948Z,0.00
2019-04-07T02:41:24.132Z,0.00
2019-04-07T02:42:24.995Z,0.00
2019-04-07T02:43:24.204Z,0.00
2019-04-07T02:44:24.049Z,0.00
2019-04-07T02:45:24.105Z,0.00
2019-04-07T02:46:24.117Z,0.00
2019-04-07T02:47:24.477Z,0.00
2019-04-07T02:48:24.198Z,0.00
2019-04-07T02:49:24.158Z,0.00
2019-04-07T02:50:24.115Z,0.00
2019-04-07T02:51:24.323Z,0.00
2019-04-07T02:52:24.882Z,0.00
2019-04-07T02:53:24.555Z,0.00
2019-04-07T02:54:24.604Z,0.00
2019-04-07T02:55:23.898Z,0.00
2019-04-07T02:56:23.846Z,0.00
2019-04-07T02:57:24.267Z,0.00
2019-04-07T02:58:23.973Z,0.00
2019-04-07T02:59:23.750Z,0.00
2019-04-07T03:00:24.630Z,0.00
2019-04-07T03:01:24.088Z,0.00
2019-04-07T03:02:23.692Z,0.00
2019-04-07T03:03:23.685Z,0.00
2019-04-07T03:04:24.506Z,0.00
2019-04-07T03:05:24.145Z,0.00
2019-04-07T03:06:37.743Z,0.00
2019-04-07T03:07:25.060Z,0.00
2019-04-07T03:08:23.803Z,0.00
2019-04-07T03:09:23.615Z,0.00
2019-04-07T03:10:23.603Z,0.00
2019-04-07T03:11:24.695Z,0.00
2019-04-07T03:12:23.619Z,0.00
2019-04-07T03:13:24.418Z,0.00
2019-04-07T03:14:23.562Z,0.00
2019-04-07T03:15:23.550Z,0.00
2019-04-07T03:16:24.352Z,0.00
2019-04-07T03:17:23.554Z,0.00
2019-04-07T03:18:25.255Z,0.00
2019-04-07T03:19:23.637Z,0.00
2019-04-07T03:20:23.498Z,0.00
2019-04-07T03:21:23.485Z,0.00
2019-04-07T03:22:23.774Z,0.00
2019-04-07T03:23:24.537Z,0.00
2019-04-07T03:24:24.404Z,0.00
2019-04-07T03:25:24.001Z,0.00
2019-04-07T03:26:23.749Z,0.00
2019-04-07T03:27:24.023Z,0.00
2019-04-07T03:28:23.413Z,0.00
2019-04-07T03:29:23.625Z,0.00
2019-04-07T03:30:25.902Z,0.00
2019-04-07T03:31:24.034Z,0.00
2019-04-07T03:32:26.016Z,0.00
2019-04-07T03:33:25.581Z,0.00
2019-04-07T03:34:26.195Z,0.00
2019-04-07T03:35:25.927Z,0.00
2019-04-07T03:36:26.037Z,0.00
2019-04-07T03:37:35.110Z,0.00
2019-04-07T03:38:24.784Z,0.00
2019-04-07T03:39:23.283Z,0.00
2019-04-07T03:40:24.034Z,0.00
2019-04-07T03:41:23.795Z,0.00
2019-04-07T03:42:23.284Z,0.00
2019-04-07T03:43:23.929Z,0.00
2019-04-07T03:44:23.226Z,0.00
2019-04-07T03:45:23.338Z,0.00
2019-04-07T03:46:23.206Z,0.00
2019-04-07T03:47:23.472Z,0.00
2019-04-07T03:48:23.604Z,0.00
2019-04-07T03:49:23.497Z,0.00
2019-04-07T03:50:23.165Z,0.00
2019-04-07T03:51:23.154Z,0.00
2019-04-07T03:52:23.150Z,0.00
2019-04-07T03:53:24.282Z,0.00
2019-04-07T03:54:24.178Z,0.00
2019-04-07T03:55:23.107Z,0.00
2019-04-07T03:56:23.244Z,0.00
2019-04-07T03:57:24.111Z,0.00
2019-04-07T03:58:23.082Z,0.00
2019-04-07T03:59:23.083Z,0.00
2019-04-07T04:00:23.080Z,0.00
2019-04-07T04:01:23.998Z,0.00
2019-04-07T04:02:23.050Z,0.00
2019-04-07T04:03:23.022Z,0.00
2019-04-07T04:04:23.017Z,0.00
2019-04-07T04:05:24.195Z,0.00
2019-04-07T04:06:22.988Z,0.00
2019-04-07T04:07:29.887Z,0.00
2019-04-07T04:08:24.506Z,0.00
2019-04-07T04:09:22.958Z,0.00
2019-04-07T04:10:23.739Z,0.00
2019-04-07T04:11:23.604Z,0.00
2019-04-07T04:12:22.935Z,0.00
2019-04-07T04:13:23.160Z,0.00
2019-04-07T04:14:23.808Z,0.00
2019-04-07T04:15:22.893Z,0.00
2019-04-07T04:16:23.358Z,0.00
2019-04-07T04:17:23.074Z,4.00
2019-04-07T04:18:22.857Z,4.00
2019-04-07T04:19:22.846Z,0.00
2019-04-07T04:20:23.888Z,0.00
2019-04-07T04:21:22.828Z,4.00
2019-04-07T04:22:23.027Z,0.00
2019-04-07T04:23:22.821Z,4.00
2019-04-07T04:24:23.051Z,4.00
2019-04-07T04:25:23.174Z,8.00
2019-04-07T04:26:23.736Z,8.00
2019-04-07T04:27:23.674Z,8.00
2019-04-07T04:28:23.462Z,8.00
2019-04-07T04:29:23.365Z,12.00
2019-04-07T04:30:22.737Z,16.00
2019-04-07T04:31:22.740Z,12.00
2019-04-07T04:32:23.143Z,20.00
2019-04-07T04:33:23.505Z,24.00
2019-04-07T04:34:22.688Z,28.00
2019-04-07T04:35:22.695Z,28.00
2019-04-07T04:36:22.662Z,36.00
2019-04-07T04:37:36.058Z,44.00
2019-04-07T04:38:24.238Z,52.00
2019-04-07T04:39:22.910Z,60.00
2019-04-07T04:40:22.621Z,72.00
2019-04-07T04:41:23.125Z,84.00
2019-04-07T04:42:22.809Z,96.00
2019-04-07T04:43:23.297Z,116.00
2019-04-07T04:44:22.639Z,132.00
2019-04-07T04:45:22.574Z,152.00
2019-04-07T04:46:22.562Z,176.00
2019-04-07T04:47:23.211Z,200.00
2019-04-07T04:48:22.537Z,224.00
2019-04-07T04:49:23.263Z,252.00
2019-04-07T04:50:23.523Z,280.00
2019-04-07T04:51:22.507Z,312.00
2019-04-07T04:52:22.505Z,344.00
2019-04-07T04:53:22.677Z,380.00
2019-04-07T04:54:22.617Z,416.00
2019-04-07T04:55:22.461Z,452.00
2019-04-07T04:56:22.939Z,492.00
2019-04-07T04:57:23.127Z,536.00
2019-04-07T04:58:22.879Z,588.00
2019-04-07T04:59:22.642Z,640.00
2019-04-07T05:00:22.408Z,696.00
2019-04-07T05:01:23.005Z,756.00
2019-04-07T05:02:22.455Z,820.00
2019-04-07T05:03:22.372Z,896.00
2019-04-07T05:04:22.956Z,976.00
2019-04-07T05:05:23.183Z,1068.00
2019-04-07T05:06:22.452Z,1164.00
2019-04-07T05:07:22.999Z,1268.00
2019-04-07T05:08:22.319Z,1376.00
2019-04-07T05:09:23.156Z,1484.00
2019-04-07T05:10:22.306Z,1600.00
2019-04-07T05:11:22.305Z,1720.00
2019-04-07T05:12:22.272Z,1836.00
2019-04-07T05:13:22.483Z,1968.00
2019-04-07T05:14:22.896Z,2100.00
2019-04-07T05:15:22.829Z,2244.00
2019-04-07T05:16:22.936Z,2392.00
2019-04-07T05:17:22.244Z,2536.00
2019-04-07T05:18:22.300Z,2692.00
2019-04-07T05:19:22.486Z,2844.00
2019-04-07T05:20:22.897Z,3008.00
2019-04-07T05:21:22.337Z,3168.00
2019-04-07T05:22:22.554Z,3320.00
2019-04-07T05:23:22.170Z,3460.00
2019-04-07T05:24:22.264Z,3572.00
2019-04-07T05:25:22.279Z,3676.00
2019-04-07T05:26:22.348Z,3764.00
2019-04-07T05:27:22.118Z,3856.00
2019-04-07T05:28:22.097Z,3944.00
2019-04-07T05:29:22.102Z,4044.00
2019-04-07T05:30:22.545Z,4148.00
2019-04-07T05:31:22.473Z,4256.00
2019-04-07T05:32:22.327Z,4380.00
2019-04-07T05:33:22.044Z,4524.00
2019-04-07T05:34:23.004Z,4668.00
2019-04-07T05:35:22.548Z,4812.00
2019-04-07T05:36:22.367Z,4964.00
2019-04-07T05:37:22.087Z,5128.00
2019-04-07T05:38:22.357Z,5320.00
2019-04-07T05:39:21.985Z,5544.00
2019-04-07T05:40:21.959Z,5784.00
2019-04-07T05:41:21.976Z,6012.00
2019-04-07T05:42:22.537Z,6228.00
2019-04-07T05:43:22.678Z,6456.00
2019-04-07T05:44:21.923Z,6716.00
2019-04-07T05:45:22.645Z,6972.00
2019-04-07T05:46:21.894Z,7236.00
2019-04-07T05:47:21.897Z,7492.00
2019-04-07T05:48:21.910Z,7704.00
2019-04-07T05:49:24.074Z,7948.00
2019-04-07T05:50:22.289Z,8208.00
2019-04-07T05:51:22.065Z,8388.00
2019-04-07T05:52:21.837Z,8488.00
2019-04-07T05:53:21.831Z,8656.00
2019-04-07T05:54:22.490Z,8944.00
2019-04-07T05:55:24.093Z,9180.00
2019-04-07T05:56:25.900Z,9524.00
2019-04-07T05:57:22.791Z,10024.00
2019-04-07T05:58:22.186Z,10692.00
2019-04-07T05:59:22.154Z,11392.00
2019-04-07T06:00:21.888Z,12080.00
2019-04-07T06:01:23.334Z,12684.00
2019-04-07T06:02:22.290Z,12700.00
2019-04-07T06:03:21.948Z,12672.00
2019-04-07T06:04:21.795Z,12688.00
2019-04-07T06:05:22.136Z,12292.00
2019-04-07T06:06:22.434Z,12092.00
2019-04-07T06:07:25.801Z,12052.00
2019-04-07T06:08:30.317Z,12104.00
2019-04-07T06:09:23.091Z,12228.00
2019-04-07T06:10:23.876Z,12608.00
2019-04-07T06:11:21.719Z,12692.00
2019-04-07T06:12:21.636Z,12456.00
2019-04-07T06:13:21.580Z,12740.00
2019-04-07T06:14:21.576Z,13300.00
2019-04-07T06:15:22.317Z,13496.00
2019-04-07T06:16:22.477Z,13592.00
2019-04-07T06:17:24.196Z,13868.00
2019-04-07T06:18:21.520Z,14300.00
2019-04-07T06:19:21.569Z,14680.00
2019-04-07T06:20:21.497Z,15052.00
2019-04-07T06:21:22.164Z,15392.00
2019-04-07T06:22:22.039Z,15840.00
2019-04-07T06:23:24.264Z,16000.00
2019-04-07T06:24:22.470Z,16224.00
2019-04-07T06:25:21.437Z,16416.00
2019-04-07T06:26:22.246Z,16576.00
2019-04-07T06:27:21.751Z,16768.00
2019-04-07T06:28:21.412Z,16928.00
2019-04-07T06:29:24.681Z,16960.00
2019-04-07T06:30:22.072Z,17024.00
2019-04-07T06:31:24.303Z,16960.00
2019-04-07T06:32:21.895Z,16800.00
2019-04-07T06:33:22.090Z,16480.00
2019-04-07T06:34:21.601Z,16288.00
2019-04-07T06:35:21.346Z,16608.00
2019-04-07T06:36:21.317Z,18400.00
2019-04-07T06:37:25.799Z,21024.00
2019-04-07T06:38:31.117Z,22848.00
2019-04-07T06:39:23.054Z,24576.00
2019-04-07T06:40:22.188Z,25728.00
2019-04-07T06:41:21.776Z,26848.00
2019-04-07T06:42:22.001Z,28416.00
2019-04-07T06:43:21.238Z,29696.00
2019-04-07T06:44:23.000Z,30528.00
2019-04-07T06:45:22.736Z,31072.00
2019-04-07T06:46:22.646Z,31584.00
2019-04-07T06:47:21.465Z,31264.00
2019-04-07T06:48:21.188Z,31424.00
2019-04-07T06:49:21.865Z,31360.00
2019-04-07T06:50:21.162Z,31712.00
2019-04-07T06:51:21.481Z,31936.00
2019-04-07T06:52:21.132Z,31936.00
2019-04-07T06:53:21.169Z,31840.00
2019-04-07T06:54:22.227Z,31008.00
2019-04-07T06:55:22.639Z,30624.00
2019-04-07T06:56:21.091Z,31104.00
2019-04-07T06:57:21.077Z,32928.00
2019-04-07T06:58:21.069Z,34560.00
2019-04-07T06:59:21.074Z,36032.00
2019-04-07T07:00:24.442Z,37088.00
2019-04-07T07:01:25.191Z,36608.00
2019-04-07T07:02:22.460Z,36448.00
2019-04-07T07:03:21.513Z,37856.00
2019-04-07T07:04:21.169Z,40384.00
2019-04-07T07:05:21.337Z,40576.00
2019-04-07T07:06:20.982Z,40128.00
2019-04-07T07:07:21.546Z,40352.00
2019-04-07T07:08:21.965Z,39712.00
2019-04-07T07:09:21.316Z,40160.00
2019-04-07T07:10:28.978Z,40352.00
2019-04-07T07:11:28.619Z,41216.00
2019-04-07T07:12:30.305Z,42208.00
2019-04-07T07:13:29.911Z,42816.00
2019-04-07T07:14:33.495Z,44352.00
2019-04-07T07:15:21.892Z,45824.00
2019-04-07T07:16:21.728Z,44800.00
2019-04-07T07:17:21.523Z,42976.00
2019-04-07T07:18:22.932Z,43136.00
2019-04-07T07:19:24.467Z,46080.00
2019-04-07T07:20:21.848Z,48384.00
2019-04-07T07:21:24.068Z,49024.00
2019-04-07T07:22:20.805Z,49184.00
2019-04-07T07:23:20.802Z,48672.00
2019-04-07T07:24:25.005Z,48992.00
2019-04-07T07:25:21.355Z,47008.00
2019-04-07T07:26:21.776Z,46496.00
2019-04-07T07:27:20.819Z,47808.00
2019-04-07T07:28:21.221Z,47424.00
2019-04-07T07:29:21.368Z,46208.00
2019-04-07T07:30:21.401Z,46400.00
2019-04-07T07:31:25.255Z,45664.00
2019-04-07T07:32:21.360Z,45920.00
2019-04-07T07:33:21.343Z,47872.00
2019-04-07T07:34:21.141Z,47456.00
2019-04-07T07:35:20.670Z,48736.00
2019-04-07T07:36:22.630Z,48032.00
2019-04-07T07:37:20.636Z,44320.00
2019-04-07T07:38:21.329Z,43136.00
2019-04-07T07:39:22.876Z,47456.00
2019-04-07T07:40:21.141Z,49312.00
2019-04-07T07:41:22.391Z,52032.00
2019-04-07T07:42:23.120Z,54592.00
2019-04-07T07:43:21.069Z,55584.00
2019-04-07T07:44:20.556Z,55552.00
2019-04-07T07:45:20.545Z,59360.00
2019-04-07T07:46:22.577Z,60032.00
2019-04-07T07:47:22.439Z,58560.00
2019-04-07T07:48:23.652Z,56352.00
2019-04-07T07:49:21.543Z,57280.00
2019-04-07T07:50:20.548Z,57984.00
2019-04-07T07:51:20.475Z,59008.00
2019-04-07T07:52:21.803Z,60320.00
2019-04-07T07:53:23.693Z,60672.00
2019-04-07T07:54:21.746Z,57856.00
2019-04-07T07:55:20.827Z,57056.00
2019-04-07T07:56:21.316Z,57408.00
2019-04-07T07:57:23.495Z,56960.00
2019-04-07T07:58:20.427Z,54784.00
2019-04-07T07:59:20.406Z,52064.00
2019-04-07T08:00:20.995Z,49792.00
2019-04-07T08:01:21.068Z,48384.00
2019-04-07T08:02:20.838Z,48544.00
2019-04-07T08:03:22.670Z,52768.00
2019-04-07T08:04:20.710Z,54368.00
2019-04-07T08:05:20.352Z,56544.00
2019-04-07T08:06:20.584Z,57824.00
2019-04-07T08:07:20.387Z,57888.00
2019-04-07T08:08:21.727Z,57760.00
2019-04-07T08:09:23.674Z,62880.00
2019-04-07T08:10:20.287Z,64864.00
2019-04-07T08:11:20.497Z,64640.00
2019-04-07T08:12:20.609Z,62400.00
2019-04-07T08:13:20.236Z,63424.00
2019-04-07T08:14:20.223Z,65216.00
2019-04-07T08:15:22.879Z,65760.00
2019-04-07T08:16:20.556Z,64128.00
2019-04-07T08:17:20.210Z,65408.00
2019-04-07T08:18:21.016Z,68288.00
2019-04-07T08:19:20.174Z,67136.00
2019-04-07T08:20:20.162Z,65344.00
2019-04-07T08:21:20.571Z,66528.00
2019-04-07T08:22:27.651Z,64608.00
2019-04-07T08:23:21.982Z,67072.00
2019-04-07T08:24:20.771Z,63008.00
2019-04-07T08:25:22.442Z,62688.00
2019-04-07T08:26:23.900Z,65472.00
2019-04-07T08:27:20.551Z,65056.00
2019-04-07T08:28:20.903Z,63040.00
2019-04-07T08:29:20.344Z,62720.00
2019-04-07T08:30:20.050Z,62496.00
2019-04-07T08:31:21.422Z,65568.00
2019-04-07T08:32:22.660Z,67168.00
2019-04-07T08:33:21.016Z,64000.00
2019-04-07T08:34:20.013Z,62464.00
2019-04-07T08:35:20.026Z,65664.00
2019-04-07T08:36:19.984Z,63488.00
2019-04-07T08:37:20.035Z,64288.00
2019-04-07T08:38:23.523Z,65408.00
2019-04-07T08:39:25.584Z,65408.00
2019-04-07T08:40:21.005Z,64000.00
2019-04-07T08:41:19.934Z,66080.00
2019-04-07T08:42:20.801Z,66592.00
2019-04-07T08:43:22.552Z,66208.00
2019-04-07T08:44:20.471Z,63808.00
2019-04-07T08:45:19.890Z,65120.00
2019-04-07T08:46:20.070Z,65632.00
2019-04-07T08:47:22.109Z,65760.00
2019-04-07T08:48:20.859Z,62016.00
2019-04-07T08:49:23.618Z,63776.00
2019-04-07T08:50:21.538Z,62336.00
2019-04-07T08:51:20.045Z,61600.00
2019-04-07T08:52:19.835Z,62720.00
2019-04-07T08:53:19.802Z,61568.00
2019-04-07T08:54:19.968Z,63776.00
2019-04-07T08:55:20.429Z,65792.00
2019-04-07T08:56:19.769Z,65760.00
2019-04-07T08:57:19.760Z,67072.00
2019-04-07T08:58:27.147Z,68768.00
2019-04-07T08:59:20.743Z,71200.00
2019-04-07T09:00:20.282Z,72672.00
2019-04-07T09:01:21.072Z,71552.00
2019-04-07T09:02:20.059Z,73440.00
2019-04-07T09:03:19.720Z,74752.00
2019-04-07T09:04:19.720Z,78208.00
2019-04-07T09:05:23.077Z,80448.00
2019-04-07T09:06:20.919Z,85120.00
2019-04-07T09:07:22.558Z,84192.00
2019-04-07T09:08:20.392Z,82400.00
2019-04-07T09:09:31.186Z,76576.00
2019-04-07T09:10:21.584Z,73952.00
2019-04-07T09:11:21.647Z,74432.00
2019-04-07T09:12:19.600Z,74368.00
2019-04-07T09:13:19.757Z,74880.00
2019-04-07T09:14:20.249Z,73376.00
2019-04-07T09:15:19.567Z,75200.00
2019-04-07T09:16:19.993Z,74656.00
2019-04-07T09:17:30.712Z,75392.00
2019-04-07T09:18:20.538Z,74912.00
2019-04-07T09:19:20.303Z,75040.00
2019-04-07T09:20:20.040Z,76640.00
2019-04-07T09:21:20.703Z,78368.00
2019-04-07T09:22:22.170Z,75744.00
2019-04-07T09:23:20.131Z,73312.00
2019-04-07T09:24:19.590Z,73056.00
2019-04-07T09:25:20.334Z,75072.00
2019-04-07T09:26:21.154Z,76512.00
2019-04-07T09:27:23.363Z,77408.00
2019-04-07T09:28:22.151Z,75840.00
2019-04-07T09:29:19.421Z,78304.00
2019-04-07T09:30:19.667Z,78144.00
2019-04-07T09:31:19.632Z,78176.00
2019-04-07T09:32:19.391Z,78208.00
2019-04-07T09:33:19.382Z,79296.00
2019-04-07T09:34:21.178Z,79808.00
2019-04-07T09:35:22.765Z,80832.00
2019-04-07T09:36:19.460Z,80224.00
2019-04-07T09:37:22.023Z,81152.00
2019-04-07T09:38:19.325Z,79072.00
2019-04-07T09:39:19.318Z,80000.00
2019-04-07T09:40:20.091Z,78624.00
2019-04-07T09:41:23.152Z,77376.00
2019-04-07T09:42:24.382Z,76128.00
2019-04-07T09:43:20.269Z,75680.00
2019-04-07T09:44:19.791Z,76608.00
2019-04-07T09:45:19.585Z,76928.00
2019-04-07T09:46:20.151Z,79360.00
2019-04-07T09:47:19.633Z,79104.00
2019-04-07T09:48:21.796Z,80832.00
2019-04-07T09:49:21.251Z,80224.00
2019-04-07T09:50:19.770Z,81216.00
2019-04-07T09:51:19.739Z,80992.00
2019-04-07T09:52:19.189Z,80736.00
2019-04-07T09:53:19.725Z,81280.00
2019-04-07T09:54:22.177Z,79424.00
2019-04-07T09:55:19.144Z,79872.00
2019-04-07T09:56:19.160Z,78816.00
2019-04-07T09:57:19.131Z,77952.00
2019-04-07T09:58:19.305Z,80480.00
2019-04-07T09:59:19.540Z,80320.00
2019-04-07T10:00:21.634Z,82176.00
2019-04-07T10:01:20.767Z,82112.00
2019-04-07T10:02:19.628Z,81920.00
2019-04-07T10:03:19.302Z,80864.00
2019-04-07T10:04:19.068Z,80704.00
2019-04-07T10:05:19.039Z,81440.00
2019-04-07T10:06:19.028Z,80928.00
2019-04-07T10:07:19.326Z,80864.00
2019-04-07T10:08:19.573Z,80704.00
2019-04-07T10:09:19.691Z,81216.00
2019-04-07T10:10:19.175Z,81184.00
2019-04-07T10:11:19.658Z,81792.00
2019-04-07T10:12:19.667Z,80960.00
2019-04-07T10:13:18.955Z,81792.00
2019-04-07T10:14:19.613Z,80480.00
2019-04-07T10:15:18.949Z,80736.00
2019-04-07T10:16:18.943Z,80256.00
2019-04-07T10:17:18.913Z,79648.00
2019-04-07T10:18:19.222Z,80480.00
2019-04-07T10:19:18.893Z,80384.00
2019-04-07T10:20:22.026Z,80224.00
2019-04-07T10:21:19.608Z,80096.00
2019-04-07T10:22:19.741Z,80512.00
2019-04-07T10:23:19.619Z,79040.00
2019-04-07T10:24:19.695Z,79392.00
2019-04-07T10:25:18.824Z,79744.00
2019-04-07T10:26:18.894Z,78464.00
2019-04-07T10:27:18.824Z,78080.00
2019-04-07T10:28:18.861Z,78048.00
2019-04-07T10:29:18.794Z,75776.00
2019-04-07T10:30:18.910Z,75648.00
2019-04-07T10:31:20.753Z,75232.00
2019-04-07T10:32:18.920Z,74976.00
2019-04-07T10:33:19.055Z,78208.00
2019-04-07T10:34:18.750Z,79392.00
2019-04-07T10:35:19.008Z,82272.00
2019-04-07T10:36:19.404Z,82400.00
2019-04-07T10:37:18.858Z,79456.00
2019-04-07T10:38:18.964Z,76896.00
2019-04-07T10:39:18.716Z,76000.00
2019-04-07T10:40:21.227Z,76416.00
2019-04-07T10:41:18.697Z,78976.00
2019-04-07T10:42:18.993Z,80672.00
2019-04-07T10:43:18.643Z,79904.00
2019-04-07T10:44:19.433Z,80416.00
2019-04-07T10:45:18.625Z,80224.00
2019-04-07T10:46:18.631Z,80160.00
2019-04-07T10:47:19.301Z,80384.00
2019-04-07T10:48:19.097Z,78464.00
2019-04-07T10:49:19.146Z,77088.00
2019-04-07T10:50:18.568Z,76608.00
2019-04-07T10:51:18.560Z,76128.00
2019-04-07T10:52:19.660Z,76800.00
2019-04-07T10:53:19.465Z,77216.00
2019-04-07T10:54:18.524Z,79968.00
2019-04-07T10:55:18.520Z,81472.00
2019-04-07T10:56:18.806Z,81920.00
2019-04-07T10:57:18.862Z,79744.00
2019-04-07T10:58:18.496Z,80064.00
2019-04-07T10:59:18.473Z,78400.00
2019-04-07T11:00:19.263Z,78176.00
2019-04-07T11:01:19.395Z,74816.00
2019-04-07T11:02:19.164Z,71936.00
2019-04-07T11:03:18.631Z,73312.00
2019-04-07T11:04:19.112Z,76576.00
2019-04-07T11:05:18.638Z,77312.00
2019-04-07T11:06:19.103Z,78336.00
2019-04-07T11:07:18.989Z,77152.00
2019-04-07T11:08:18.378Z,77760.00
2019-04-07T11:09:18.370Z,76768.00
2019-04-07T11:10:29.733Z,76480.00
2019-04-07T11:11:20.189Z,76864.00
2019-04-07T11:12:18.335Z,76224.00
2019-04-07T11:13:18.577Z,74368.00
2019-04-07T11:14:18.505Z,75680.00
2019-04-07T11:15:18.462Z,76032.00
2019-04-07T11:16:18.573Z,77504.00
2019-04-07T11:17:18.285Z,78208.00
2019-04-07T11:18:19.018Z,76672.00
2019-04-07T11:19:18.264Z,75744.00
2019-04-07T11:20:18.258Z,49984.00
2019-04-07T11:21:18.246Z,15984.00
2019-04-07T11:22:18.786Z,10280.00
2019-04-07T11:23:18.222Z,10224.00
2019-04-07T11:24:18.750Z,10228.00
2019-04-07T11:25:18.385Z,10428.00
2019-04-07T11:26:18.189Z,10708.00
2019-04-07T11:27:19.044Z,10896.00
2019-04-07T11:28:18.188Z,10892.00
2019-04-07T11:29:18.159Z,10632.00
2019-04-07T11:30:18.183Z,10364.00
2019-04-07T11:31:18.776Z,10168.00
2019-04-07T11:32:18.130Z,10012.00
2019-04-07T11:33:18.304Z,9940.00
2019-04-07T11:34:18.124Z,10068.00
2019-04-07T11:35:18.200Z,10328.00
2019-04-07T11:36:21.275Z,11064.00
2019-04-07T11:37:18.907Z,11360.00
2019-04-07T11:38:19.693Z,11136.00
2019-04-07T11:39:18.826Z,10972.00
2019-04-07T11:40:18.247Z,11056.00
2019-04-07T11:41:21.666Z,10684.00
2019-04-07T11:42:19.726Z,10872.00
2019-04-07T11:43:18.002Z,11380.00
2019-04-07T11:44:20.155Z,10904.00
2019-04-07T11:45:17.986Z,11252.00
2019-04-07T11:46:18.764Z,10992.00
2019-04-07T11:47:18.583Z,11688.00
2019-04-07T11:48:18.040Z,12364.00
2019-04-07T11:49:18.237Z,13036.00
2019-04-07T11:50:18.825Z,14296.00
2019-04-07T11:51:18.494Z,14864.00
2019-04-07T11:52:18.009Z,15224.00
2019-04-07T11:53:17.891Z,15724.00
2019-04-07T11:54:18.234Z,16316.00
2019-04-07T11:55:18.416Z,16012.00
2019-04-07T11:56:17.865Z,15840.00
2019-04-07T11:57:17.846Z,15516.00
2019-04-07T11:58:26.009Z,15344.00
2019-04-07T11:59:20.325Z,15456.00
2019-04-07T12:00:18.386Z,15596.00
2019-04-07T12:01:18.608Z,15464.00
2019-04-07T12:02:19.778Z,15384.00
2019-04-07T12:03:18.220Z,15716.00
2019-04-07T12:04:18.521Z,16224.00
2019-04-07T12:05:17.761Z,16000.00
2019-04-07T12:06:18.103Z,15556.00
2019-04-07T12:07:20.335Z,15332.00
2019-04-07T12:08:17.725Z,14884.00
2019-04-07T12:09:17.716Z,14180.00
2019-04-07T12:10:17.935Z,13712.00
2019-04-07T12:11:17.994Z,14592.00
2019-04-07T12:12:18.228Z,15736.00
2019-04-07T12:13:17.671Z,16504.00
2019-04-07T12:14:18.075Z,17240.00
2019-04-07T12:15:22.072Z,17604.00
2019-04-07T12:16:18.655Z,16348.00
2019-04-07T12:17:17.779Z,15616.00
2019-04-07T12:18:18.967Z,14860.00
2019-04-07T12:19:18.488Z,14040.00
2019-04-07T12:20:17.664Z,13608.00